createdAt,value
2022-12-08T00:02:03.920Z,23.70
2022-12-08T00:04:56.617Z,24.70
2022-12-08T00:07:48.987Z,24.00
2022-12-08T00:10:47.898Z,23.60
2022-12-08T00:13:14.258Z,24.70
2022-12-08T00:15:47.802Z,24.00
2022-12-08T00:18:20.248Z,24.90
2022-12-08T00:20:58.875Z,26.70
2022-12-08T00:23:31.343Z,25.30
2022-12-08T00:26:07.052Z,24.70
2022-12-08T00:28:39.645Z,25.20
2022-12-08T00:31:12.853Z,25.30
2022-12-08T00:33:45.354Z,26.20
2022-12-08T00:36:18.269Z,24.80
2022-12-08T00:41:44.533Z,22.20
2022-12-08T00:44:19.007Z,20.90
2022-12-08T00:46:52.016Z,21.90
2022-12-08T00:49:25.557Z,22.60
2022-12-08T00:51:58.733Z,23.20
2022-12-08T00:54:31.883Z,22.70
2022-12-08T00:57:04.690Z,23.40
2022-12-08T00:59:37.260Z,24.20
2022-12-08T01:02:09.734Z,22.20
2022-12-08T01:04:42.956Z,24.60
2022-12-08T01:07:15.518Z,25.30
2022-12-08T01:09:47.974Z,24.50
2022-12-08T01:12:20.467Z,23.60
2022-12-08T01:14:55.014Z,25.20
2022-12-08T01:17:29.365Z,24.30
2022-12-08T01:20:03.019Z,24.60
2022-12-08T01:22:36.534Z,24.70
2022-12-08T01:25:10.094Z,24.10
2022-12-08T01:27:42.561Z,25.90
2022-12-08T01:30:16.339Z,23.60
2022-12-08T01:32:48.995Z,26.10
2022-12-08T01:35:21.479Z,26.40
2022-12-08T01:37:56.222Z,26.20
2022-12-08T01:40:28.734Z,25.20
2022-12-08T01:43:01.153Z,28.10
2022-12-08T01:45:34.979Z,27.10
2022-12-08T01:48:12.248Z,26.50
2022-12-08T01:50:45.291Z,27.70
2022-12-08T01:55:53.885Z,27.60
2022-12-08T01:58:30.211Z,25.90
2022-12-08T02:01:02.803Z,27.40
2022-12-08T02:03:39.890Z,27.30
2022-12-08T02:06:13.128Z,27.80
2022-12-08T02:08:46.228Z,27.80
2022-12-08T02:11:18.829Z,28.10
2022-12-08T02:13:53.297Z,28.80
2022-12-08T02:16:36.970Z,26.20
2022-12-08T02:19:31.189Z,27.30
2022-12-08T02:22:09.964Z,25.60
2022-12-08T02:24:46.201Z,27.30
2022-12-08T02:27:46.209Z,27.30
2022-12-08T02:30:27.049Z,26.80
2022-12-08T02:33:22.808Z,24.60
2022-12-08T02:36:00.156Z,26.60
2022-12-08T02:38:48.999Z,26.50
2022-12-08T02:41:28.128Z,27.50
2022-12-08T02:44:05.855Z,28.40
2022-12-08T02:46:41.252Z,27.20
2022-12-08T02:49:15.421Z,27.20
2022-12-08T02:51:47.943Z,29.10
2022-12-08T02:54:20.447Z,28.40
2022-12-08T02:57:05.459Z,28.40
2022-12-08T02:59:46.368Z,28.20
2022-12-08T03:02:45.045Z,28.60
2022-12-08T03:05:32.846Z,30.00
2022-12-08T03:08:10.631Z,29.40
2022-12-08T03:10:46.435Z,28.90
2022-12-08T03:13:21.298Z,28.60
2022-12-08T03:15:54.189Z,28.10
2022-12-08T03:18:30.363Z,29.40
2022-12-08T03:21:03.169Z,26.90
2022-12-08T03:26:10.077Z,27.30
2022-12-08T03:28:42.658Z,26.20
2022-12-08T03:31:16.054Z,26.90
2022-12-08T03:33:51.302Z,27.70
2022-12-08T03:36:23.898Z,27.30
2022-12-08T03:38:57.036Z,28.60
2022-12-08T03:41:29.438Z,28.40
2022-12-08T03:44:01.941Z,28.00
2022-12-08T03:46:34.449Z,28.70
2022-12-08T03:49:07.138Z,27.30
2022-12-08T03:51:39.643Z,28.00
2022-12-08T03:54:12.098Z,27.60
2022-12-08T03:56:44.493Z,28.40
2022-12-08T03:59:17.039Z,27.70
2022-12-08T04:01:49.606Z,27.90
2022-12-08T04:04:22.166Z,27.20
2022-12-08T04:06:54.782Z,27.40
2022-12-08T04:09:27.366Z,29.10
2022-12-08T04:11:59.766Z,28.10
2022-12-08T04:14:32.209Z,27.80
2022-12-08T04:17:04.745Z,27.70
2022-12-08T04:19:37.234Z,28.80
2022-12-08T04:22:09.736Z,30.00
2022-12-08T04:24:42.295Z,30.00
2022-12-08T04:27:14.823Z,30.10
2022-12-08T04:29:53.421Z,30.20
2022-12-08T04:32:25.911Z,29.50
2022-12-08T04:34:58.413Z,29.40
2022-12-08T04:37:31.200Z,30.50
2022-12-08T04:42:35.180Z,30.30
2022-12-08T04:45:08.982Z,30.80
2022-12-08T04:47:41.459Z,31.40
2022-12-08T04:50:14.389Z,31.10
2022-12-08T04:52:47.139Z,30.20
2022-12-08T04:55:20.416Z,30.30
2022-12-08T04:57:53.188Z,30.20
2022-12-08T05:02:56.632Z,30.10
2022-12-08T05:05:29.210Z,30.20
2022-12-08T05:08:01.841Z,29.30
2022-12-08T05:10:34.405Z,30.00
2022-12-08T05:13:06.992Z,27.60
2022-12-08T05:15:39.432Z,30.70
2022-12-08T05:18:11.991Z,29.00
2022-12-08T05:20:44.571Z,30.60
2022-12-08T05:23:17.103Z,31.20
2022-12-08T05:25:49.642Z,31.00
2022-12-08T05:31:16.389Z,29.30
2022-12-08T05:33:50.073Z,30.30
2022-12-08T05:36:23.143Z,30.00
2022-12-08T05:38:57.430Z,30.20
2022-12-08T05:41:29.968Z,31.90
2022-12-08T05:44:02.484Z,32.70
2022-12-08T05:46:35.170Z,33.80
2022-12-08T05:49:07.618Z,31.00
2022-12-08T05:51:40.238Z,31.50
2022-12-08T05:54:14.296Z,31.30
2022-12-08T05:56:46.801Z,30.80
2022-12-08T05:59:21.395Z,31.40
2022-12-08T06:01:53.944Z,32.10
2022-12-08T06:04:26.403Z,31.80
2022-12-08T06:06:59.022Z,32.40
2022-12-08T06:09:31.527Z,31.90
2022-12-08T06:12:04.656Z,31.40
2022-12-08T06:14:37.240Z,30.40
2022-12-08T06:17:09.903Z,32.20
2022-12-08T06:22:13.482Z,30.80
2022-12-08T06:24:46.228Z,32.40
2022-12-08T06:27:18.804Z,30.90
2022-12-08T06:29:51.359Z,29.70
2022-12-08T06:32:27.392Z,32.70
2022-12-08T06:35:00.459Z,31.50
2022-12-08T06:37:33.135Z,29.30
2022-12-08T06:40:06.570Z,30.50
2022-12-08T06:42:45.407Z,30.40
2022-12-08T06:45:19.230Z,30.70
2022-12-08T06:47:52.358Z,31.80
2022-12-08T06:50:25.063Z,30.60
2022-12-08T06:53:05.130Z,33.20
2022-12-08T06:58:31.021Z,30.60
2022-12-08T07:01:09.442Z,31.80
2022-12-08T07:03:43.707Z,29.60
2022-12-08T07:06:19.923Z,28.10
2022-12-08T07:08:52.667Z,29.50
2022-12-08T07:11:25.203Z,28.90
2022-12-08T07:13:58.786Z,28.50
2022-12-08T07:16:31.561Z,29.60
2022-12-08T07:21:35.149Z,26.90
2022-12-08T07:24:08.990Z,27.10
2022-12-08T07:26:44.411Z,27.20
2022-12-08T07:29:20.472Z,27.20
2022-12-08T07:31:57.268Z,28.50
2022-12-08T07:34:30.023Z,26.30
2022-12-08T07:37:03.189Z,25.70
2022-12-08T07:39:35.740Z,25.70
2022-12-08T07:42:08.291Z,27.40
2022-12-08T07:44:41.398Z,27.20
2022-12-08T07:47:13.821Z,26.30
2022-12-08T07:49:46.434Z,25.20
2022-12-08T07:52:19.042Z,25.20
2022-12-08T07:54:51.688Z,26.30
2022-12-08T07:57:24.285Z,28.00
2022-12-08T07:59:57.000Z,27.30
2022-12-08T08:02:29.788Z,26.80
2022-12-08T08:05:03.438Z,27.40
2022-12-08T08:07:37.266Z,25.70
2022-12-08T08:10:12.170Z,27.00
2022-12-08T08:12:44.717Z,28.70
2022-12-08T08:15:21.494Z,26.10
2022-12-08T08:17:54.463Z,28.40
2022-12-08T08:20:28.341Z,26.60
2022-12-08T08:23:35.660Z,25.60
2022-12-08T08:26:24.638Z,26.60
2022-12-08T08:29:04.299Z,23.70
2022-12-08T08:31:38.607Z,24.60
2022-12-08T08:34:35.335Z,24.80
2022-12-08T08:37:15.669Z,24.80
2022-12-08T08:39:50.733Z,23.30
2022-12-08T08:42:24.017Z,22.80
2022-12-08T08:44:56.661Z,22.80
2022-12-08T08:47:29.494Z,22.20
2022-12-08T08:50:03.052Z,21.70
2022-12-08T08:52:35.860Z,21.70
2022-12-08T08:55:09.738Z,22.40
2022-12-08T08:57:42.400Z,21.90
2022-12-08T09:00:17.212Z,22.00
2022-12-08T09:02:49.943Z,22.20
2022-12-08T09:07:53.764Z,22.80
2022-12-08T09:12:57.524Z,21.50
2022-12-08T09:18:01.531Z,23.10
2022-12-08T09:23:05.147Z,22.50
2022-12-08T09:25:37.754Z,24.10
2022-12-08T09:28:10.441Z,20.90
2022-12-08T09:33:15.516Z,22.00
2022-12-08T09:35:51.736Z,21.50
2022-12-08T09:38:24.539Z,22.70
2022-12-08T09:43:39.802Z,23.40
2022-12-08T09:46:14.645Z,22.30
2022-12-08T09:48:55.775Z,21.90
2022-12-08T09:51:32.781Z,20.70
2022-12-08T09:54:08.358Z,17.90
2022-12-08T09:56:41.820Z,19.40
2022-12-08T09:59:24.151Z,17.90
2022-12-08T10:01:57.750Z,19.20
2022-12-08T10:04:32.852Z,18.10
2022-12-08T10:07:11.676Z,20.10
2022-12-08T10:09:46.599Z,19.40
2022-12-08T10:12:24.182Z,19.90
2022-12-08T10:15:04.102Z,18.40
2022-12-08T10:17:39.244Z,19.10
2022-12-08T10:20:20.499Z,18.60
2022-12-08T10:23:00.735Z,19.40
2022-12-08T10:25:37.456Z,19.70
2022-12-08T10:28:11.630Z,18.60
2022-12-08T10:30:44.905Z,19.40
2022-12-08T10:33:20.064Z,19.90
2022-12-08T10:35:54.388Z,18.30
2022-12-08T10:38:31.085Z,19.20
2022-12-08T10:41:08.800Z,20.50
2022-12-08T10:43:44.010Z,20.00
2022-12-08T10:46:19.551Z,19.10
2022-12-08T10:48:54.385Z,19.40
2022-12-08T10:51:31.497Z,19.60
2022-12-08T10:54:06.258Z,18.90
2022-12-08T10:56:38.773Z,19.70
2022-12-08T10:59:16.396Z,18.40
2022-12-08T11:01:50.974Z,19.50
2022-12-08T11:04:25.145Z,17.60
2022-12-08T11:06:57.730Z,18.90
2022-12-08T11:09:38.734Z,19.40
2022-12-08T11:12:15.852Z,19.20
2022-12-08T11:14:57.291Z,18.70
2022-12-08T11:17:30.995Z,18.20
2022-12-08T11:20:06.843Z,19.70
2022-12-08T11:22:41.836Z,19.10
2022-12-08T11:25:18.721Z,19.80
2022-12-08T11:27:53.108Z,20.40
2022-12-08T11:30:27.287Z,18.60
2022-12-08T11:33:02.263Z,20.40
2022-12-08T11:35:38.679Z,21.40
2022-12-08T11:38:21.485Z,20.50
2022-12-08T11:40:56.847Z,21.40
2022-12-08T11:43:40.290Z,20.80
2022-12-08T11:46:19.268Z,21.20
2022-12-08T11:48:55.509Z,22.00
2022-12-08T11:51:34.766Z,20.80
2022-12-08T11:54:19.013Z,22.00
2022-12-08T11:56:53.090Z,22.00
2022-12-08T11:59:30.273Z,22.00
2022-12-08T12:02:05.144Z,22.50
2022-12-08T12:04:40.137Z,22.80
2022-12-08T12:07:54.632Z,21.70
2022-12-08T12:10:52.427Z,24.10
2022-12-08T12:13:40.748Z,24.00
2022-12-08T12:16:37.985Z,21.60
2022-12-08T12:19:15.350Z,23.60
2022-12-08T12:21:50.222Z,23.60
2022-12-08T12:24:27.571Z,25.20
2022-12-08T12:27:06.812Z,23.60
2022-12-08T12:29:41.775Z,40.50
2022-12-08T12:32:14.484Z,28.40
2022-12-08T12:37:23.507Z,25.60
2022-12-08T12:40:01.756Z,25.50
2022-12-08T12:42:44.266Z,24.60
2022-12-08T12:45:31.580Z,24.10
2022-12-08T12:48:32.618Z,24.10
2022-12-08T12:51:37.726Z,27.80
2022-12-08T12:54:24.444Z,26.60
2022-12-08T12:56:58.381Z,24.30
2022-12-08T12:59:44.439Z,26.90
2022-12-08T13:02:34.774Z,26.60
2022-12-08T13:05:16.163Z,27.90
2022-12-08T13:07:53.534Z,27.40
2022-12-08T13:10:28.770Z,27.40
2022-12-08T13:13:20.747Z,26.40
2022-12-08T13:15:56.463Z,27.40
2022-12-08T13:18:30.552Z,28.50
2022-12-08T13:21:07.247Z,27.50
2022-12-08T13:23:48.477Z,26.70
2022-12-08T13:26:23.697Z,28.10
2022-12-08T13:29:20.927Z,29.50
2022-12-08T13:31:55.822Z,28.70
2022-12-08T13:34:34.370Z,28.70
2022-12-08T13:37:18.995Z,29.00
2022-12-08T13:39:55.345Z,27.20
2022-12-08T13:42:32.859Z,28.90
2022-12-08T13:45:48.626Z,27.80
2022-12-08T13:48:27.931Z,28.30
2022-12-08T13:57:11.206Z,27.20
2022-12-08T13:59:47.880Z,26.20
2022-12-08T14:02:22.222Z,27.20
2022-12-08T14:07:50.205Z,26.10
2022-12-08T14:10:25.340Z,27.80
2022-12-08T14:13:00.961Z,25.00
2022-12-08T14:15:38.437Z,25.20
2022-12-08T14:18:25.545Z,26.10
2022-12-08T14:21:23.113Z,26.60
2022-12-08T14:23:55.712Z,25.30
2022-12-08T14:26:35.738Z,26.30
2022-12-08T14:29:10.529Z,25.60
2022-12-08T14:31:44.625Z,25.10
2022-12-08T14:34:17.904Z,26.10
2022-12-08T14:36:50.888Z,24.40
2022-12-08T14:39:24.319Z,25.80
2022-12-08T14:42:06.705Z,25.20
2022-12-08T14:44:42.465Z,26.30
2022-12-08T14:47:22.193Z,25.00
2022-12-08T14:49:55.023Z,25.30
2022-12-08T14:52:28.398Z,25.30
2022-12-08T14:55:03.834Z,25.10
2022-12-08T14:57:37.798Z,24.60
2022-12-08T15:00:23.384Z,25.00
2022-12-08T15:02:57.058Z,24.70
2022-12-08T15:05:32.214Z,26.40
2022-12-08T15:08:06.558Z,25.20
2022-12-08T15:10:41.388Z,25.40
2022-12-08T15:13:26.551Z,25.50
2022-12-08T15:16:02.898Z,26.20
2022-12-08T15:18:39.349Z,24.40
2022-12-08T15:21:14.144Z,25.00
2022-12-08T15:23:49.664Z,25.30
2022-12-08T15:26:24.347Z,23.20
2022-12-08T15:28:57.744Z,24.60
2022-12-08T15:31:30.548Z,24.80
2022-12-08T15:36:34.146Z,24.00
2022-12-08T15:39:07.458Z,21.70
2022-12-08T15:41:44.731Z,22.50
2022-12-08T15:44:17.417Z,19.50
2022-12-08T15:46:50.421Z,22.80
2022-12-08T15:49:24.741Z,23.60
2022-12-08T15:52:09.266Z,22.00
2022-12-08T15:54:45.521Z,22.50
2022-12-08T15:57:48.827Z,23.60
2022-12-08T16:05:11.949Z,23.10
2022-12-08T16:09:20.782Z,22.30
2022-12-08T16:12:11.760Z,23.90
2022-12-08T16:17:39.523Z,25.90
2022-12-08T16:20:16.900Z,24.30
2022-12-08T16:22:59.296Z,23.30
2022-12-08T16:26:16.264Z,23.60
2022-12-08T16:31:27.952Z,21.00
2022-12-08T16:34:00.483Z,24.40
2022-12-08T16:36:32.985Z,24.70
2022-12-08T16:39:05.478Z,22.40
2022-12-08T16:41:55.689Z,25.10
2022-12-08T16:44:29.736Z,24.90
2022-12-08T16:47:07.037Z,23.10
2022-12-08T16:49:41.346Z,21.60
2022-12-08T16:52:14.189Z,21.40
2022-12-08T16:54:48.162Z,23.70
2022-12-08T16:57:20.529Z,23.90
2022-12-08T16:59:52.939Z,25.30
2022-12-08T17:02:25.348Z,22.90
2022-12-08T17:04:57.990Z,23.70
2022-12-08T17:07:30.510Z,22.80
2022-12-08T17:10:06.386Z,21.50
2022-12-08T17:12:38.969Z,22.80
2022-12-08T17:15:16.594Z,22.50
2022-12-08T17:17:49.480Z,23.30
2022-12-08T17:20:24.599Z,24.30
2022-12-08T17:22:58.990Z,22.40
2022-12-08T17:25:32.609Z,25.00
2022-12-08T17:28:06.845Z,25.50
2022-12-08T17:30:40.201Z,24.60
2022-12-08T17:33:12.699Z,25.10
2022-12-08T17:35:50.185Z,24.00
2022-12-08T17:38:23.560Z,25.30
2022-12-08T17:40:58.645Z,25.50
2022-12-08T17:43:31.417Z,24.70
2022-12-08T17:46:04.084Z,23.90
2022-12-08T17:48:36.705Z,22.80
2022-12-08T17:51:11.806Z,23.20
2022-12-08T17:53:44.420Z,24.10
2022-12-08T17:56:26.239Z,23.70
2022-12-08T17:59:05.242Z,19.10
2022-12-08T18:01:38.286Z,24.60
2022-12-08T18:04:14.226Z,24.30
2022-12-08T18:06:47.389Z,22.80
2022-12-08T18:09:20.580Z,23.90
2022-12-08T18:11:54.251Z,24.20
2022-12-08T18:14:31.938Z,23.40
2022-12-08T18:17:08.722Z,22.70
2022-12-08T18:19:41.882Z,22.50
2022-12-08T18:22:16.329Z,22.70
2022-12-08T18:24:51.561Z,23.30
2022-12-08T18:27:24.416Z,23.30
2022-12-08T18:30:02.189Z,21.10
2022-12-08T18:32:35.054Z,21.20
2022-12-08T18:35:08.844Z,21.80
2022-12-08T18:37:43.808Z,19.80
2022-12-08T18:40:18.049Z,18.30
2022-12-08T18:42:51.058Z,19.30
2022-12-08T18:45:24.250Z,20.60
2022-12-08T18:50:27.660Z,20.20
2022-12-08T18:53:00.059Z,21.30
2022-12-08T18:55:32.804Z,19.30
2022-12-08T18:58:05.294Z,20.90
2022-12-08T19:00:37.770Z,18.80
2022-12-08T19:03:10.331Z,21.50
2022-12-08T19:05:43.880Z,20.90
2022-12-08T19:08:17.269Z,20.40
2022-12-08T19:10:49.812Z,22.40
2022-12-08T19:13:22.241Z,19.60
2022-12-08T19:15:54.873Z,19.90
2022-12-08T19:18:27.510Z,21.00
2022-12-08T19:21:00.055Z,21.60
2022-12-08T19:23:34.674Z,20.60
2022-12-08T19:26:07.872Z,19.50
2022-12-08T19:28:41.470Z,20.20
2022-12-08T19:31:14.997Z,19.00
2022-12-08T19:33:47.705Z,21.00
2022-12-08T19:36:22.019Z,21.50
2022-12-08T19:39:12.434Z,24.10
2022-12-08T19:42:02.425Z,21.60
2022-12-08T19:44:52.455Z,21.90
2022-12-08T19:47:26.326Z,22.50
2022-12-08T19:50:13.668Z,23.20
2022-12-08T19:52:46.691Z,22.30
2022-12-08T19:55:19.553Z,25.40
2022-12-08T20:00:27.673Z,24.60
2022-12-08T20:03:00.338Z,24.60
2022-12-08T20:08:04.513Z,25.60
2022-12-08T20:10:39.659Z,25.10
2022-12-08T20:13:30.326Z,25.60
2022-12-08T20:16:03.566Z,25.30
2022-12-08T20:18:38.954Z,20.90
2022-12-08T20:21:13.000Z,28.70
2022-12-08T20:23:50.041Z,29.60
2022-12-08T20:26:23.917Z,27.70
2022-12-08T20:28:57.290Z,27.10
2022-12-08T20:31:32.533Z,24.50
2022-12-08T20:34:05.351Z,25.50
2022-12-08T20:36:37.956Z,27.10
2022-12-08T20:39:14.698Z,28.30
2022-12-08T20:41:48.003Z,27.70
2022-12-08T20:44:21.713Z,26.20
2022-12-08T20:46:54.163Z,27.20
2022-12-08T20:52:05.602Z,27.70
2022-12-08T20:54:41.953Z,28.00
2022-12-08T20:57:14.494Z,29.40
2022-12-08T20:59:47.204Z,27.80
2022-12-08T21:02:19.788Z,27.50
2022-12-08T21:04:53.369Z,28.80
2022-12-08T21:07:26.042Z,27.40
2022-12-08T21:09:58.578Z,29.50
2022-12-08T21:12:32.351Z,27.70
2022-12-08T21:15:07.081Z,27.40
2022-12-08T21:17:39.842Z,27.90
2022-12-08T21:20:13.082Z,27.00
2022-12-08T21:22:45.854Z,25.60
2022-12-08T21:25:18.700Z,25.10
2022-12-08T21:30:22.765Z,24.10
2022-12-08T21:32:55.496Z,25.00
2022-12-08T21:37:59.561Z,23.50
2022-12-08T21:40:32.744Z,24.60
2022-12-08T21:43:05.473Z,24.30
2022-12-08T21:45:38.089Z,24.40
2022-12-08T21:48:11.881Z,25.40
2022-12-08T21:50:44.796Z,23.90
2022-12-08T21:53:17.232Z,25.30
2022-12-08T21:55:49.989Z,25.20
2022-12-08T22:00:53.401Z,21.90
2022-12-08T22:05:57.304Z,24.00
2022-12-08T22:08:30.871Z,19.90
2022-12-08T22:11:03.848Z,23.80
2022-12-08T22:13:38.734Z,25.70
2022-12-08T22:16:14.903Z,25.50
2022-12-08T22:18:47.464Z,24.70
2022-12-08T22:21:20.711Z,23.40
2022-12-08T22:23:53.151Z,23.40
2022-12-08T22:26:25.624Z,25.30
2022-12-08T22:28:58.140Z,25.80
2022-12-08T22:31:30.582Z,24.20
2022-12-08T22:34:03.227Z,25.60
2022-12-08T22:39:07.485Z,24.30
2022-12-08T22:41:39.947Z,26.90
2022-12-08T22:44:12.646Z,25.10
2022-12-08T22:46:45.256Z,25.10
2022-12-08T22:51:48.599Z,23.40
2022-12-08T22:54:21.548Z,22.20
2022-12-08T22:56:54.243Z,21.60
2022-12-08T22:59:26.794Z,22.70
2022-12-08T23:01:59.399Z,21.00
2022-12-08T23:04:32.081Z,22.50
2022-12-08T23:07:05.237Z,22.50
2022-12-08T23:09:38.009Z,21.20
2022-12-08T23:12:10.812Z,20.30
2022-12-08T23:17:14.626Z,21.20
2022-12-08T23:19:47.355Z,19.40
2022-12-08T23:22:19.878Z,21.90
2022-12-08T23:24:52.366Z,20.70
2022-12-08T23:27:24.967Z,20.50
2022-12-08T23:29:57.470Z,20.80
2022-12-08T23:32:30.245Z,21.40
2022-12-08T23:35:02.936Z,19.60
2022-12-08T23:40:08.217Z,21.10
2022-12-08T23:42:41.513Z,21.70
2022-12-08T23:45:14.551Z,21.60
2022-12-08T23:47:47.160Z,21.80
2022-12-08T23:50:22.969Z,19.90
2022-12-08T23:52:55.410Z,21.00
2022-12-08T23:55:27.912Z,21.90
2022-12-08T23:58:00.494Z,20.80
